sensor_id;sensor_type;location;lat;lon;timestamp;pressure;altitude;pressure_sealevel;temperature;humidity
80424;BME280;69765;47.668;19.326;2023-05-29T00:00:22;99125.69;;;14.41;71.30
80424;BME280;69765;47.668;19.326;2023-05-29T00:03:24;99112.09;;;14.27;71.26
80424;BME280;69765;47.668;19.326;2023-05-29T00:06:27;99122.34;;;14.26;70.54
80424;BME280;69765;47.668;19.326;2023-05-29T00:09:29;99110.72;;;14.34;69.62
80424;BME280;69765;47.668;19.326;2023-05-29T00:12:32;99119.91;;;14.29;72.35
80424;BME280;69765;47.668;19.326;2023-05-29T00:15:34;99118.03;;;13.92;72.33
80424;BME280;69765;47.668;19.326;2023-05-29T00:18:36;99112.25;;;13.47;73.87
80424;BME280;69765;47.668;19.326;2023-05-29T00:21:46;99123.78;;;13.23;74.70
80424;BME280;69765;47.668;19.326;2023-05-29T00:24:50;99114.41;;;13.09;75.17
80424;BME280;69765;47.668;19.326;2023-05-29T00:27:52;99116.16;;;13.10;75.60
80424;BME280;69765;47.668;19.326;2023-05-29T00:30:54;99114.28;;;13.22;74.75
80424;BME280;69765;47.668;19.326;2023-05-29T00:33:57;99122.50;;;13.31;76.15
80424;BME280;69765;47.668;19.326;2023-05-29T00:36:59;99108.22;;;13.36;76.11
80424;BME280;69765;47.668;19.326;2023-05-29T00:40:02;99111.75;;;13.38;76.51
80424;BME280;69765;47.668;19.326;2023-05-29T00:43:05;99108.47;;;13.57;72.86
80424;BME280;69765;47.668;19.326;2023-05-29T00:46:09;99114.97;;;13.67;72.72
80424;BME280;69765;47.668;19.326;2023-05-29T00:49:16;99107.34;;;13.68;72.25
80424;BME280;69765;47.668;19.326;2023-05-29T00:52:19;99114.41;;;13.72;72.21
80424;BME280;69765;47.668;19.326;2023-05-29T00:55:22;99107.81;;;13.77;71.11
80424;BME280;69765;47.668;19.326;2023-05-29T00:58:25;99105.72;;;13.87;70.34
80424;BME280;69765;47.668;19.326;2023-05-29T01:01:28;99101.72;;;13.75;72.03
80424;BME280;69765;47.668;19.326;2023-05-29T01:04:33;99118.53;;;13.85;71.86
80424;BME280;69765;47.668;19.326;2023-05-29T01:07:37;99111.91;;;13.90;69.87
80424;BME280;69765;47.668;19.326;2023-05-29T01:10:40;99107.31;;;14.01;69.76
80424;BME280;69765;47.668;19.326;2023-05-29T01:13:46;99100.81;;;14.07;68.87
80424;BME280;69765;47.668;19.326;2023-05-29T01:17:06;99111.25;;;14.11;69.03
80424;BME280;69765;47.668;19.326;2023-05-29T01:20:25;99100.94;;;14.11;69.06
80424;BME280;69765;47.668;19.326;2023-05-29T01:27:07;99103.38;;;14.07;68.99
80424;BME280;69765;47.668;19.326;2023-05-29T01:30:14;99098.22;;;13.91;70.38
80424;BME280;69765;47.668;19.326;2023-05-29T01:33:17;99091.97;;;13.86;69.79
80424;BME280;69765;47.668;19.326;2023-05-29T01:36:19;99103.16;;;13.87;71.62
80424;BME280;69765;47.668;19.326;2023-05-29T01:39:24;99095.19;;;13.82;73.61
80424;BME280;69765;47.668;19.326;2023-05-29T01:42:28;99092.38;;;13.77;70.65
80424;BME280;69765;47.668;19.326;2023-05-29T01:45:32;99089.22;;;13.83;70.05
80424;BME280;69765;47.668;19.326;2023-05-29T01:48:35;99084.66;;;13.94;69.80
80424;BME280;69765;47.668;19.326;2023-05-29T01:51:39;99091.72;;;13.98;70.99
80424;BME280;69765;47.668;19.326;2023-05-29T01:54:43;99087.16;;;13.76;71.83
80424;BME280;69765;47.668;19.326;2023-05-29T01:57:46;99081.59;;;13.68;71.43
80424;BME280;69765;47.668;19.326;2023-05-29T02:00:49;99080.63;;;13.66;70.45
80424;BME280;69765;47.668;19.326;2023-05-29T02:03:51;99085.16;;;13.70;70.14
80424;BME280;69765;47.668;19.326;2023-05-29T02:06:54;99080.81;;;13.69;70.36
80424;BME280;69765;47.668;19.326;2023-05-29T02:09:56;99068.59;;;13.65;71.62
80424;BME280;69765;47.668;19.326;2023-05-29T02:12:58;99062.88;;;13.71;70.50
80424;BME280;69765;47.668;19.326;2023-05-29T02:16:01;99056.72;;;13.69;70.35
80424;BME280;69765;47.668;19.326;2023-05-29T02:19:04;99059.88;;;13.63;71.18
80424;BME280;69765;47.668;19.326;2023-05-29T02:22:07;99070.56;;;13.54;71.15
80424;BME280;69765;47.668;19.326;2023-05-29T02:25:09;99067.75;;;13.50;71.63
80424;BME280;69765;47.668;19.326;2023-05-29T02:28:12;99071.13;;;13.49;70.85
80424;BME280;69765;47.668;19.326;2023-05-29T02:31:14;99066.81;;;13.48;71.73
80424;BME280;69765;47.668;19.326;2023-05-29T02:34:17;99071.47;;;13.39;74.00
80424;BME280;69765;47.668;19.326;2023-05-29T02:37:19;99073.00;;;13.20;73.89
80424;BME280;69765;47.668;19.326;2023-05-29T02:40:21;99066.47;;;12.94;74.71
80424;BME280;69765;47.668;19.326;2023-05-29T02:43:24;99070.22;;;12.85;75.16
80424;BME280;69765;47.668;19.326;2023-05-29T02:46:26;99069.03;;;12.94;76.00
80424;BME280;69765;47.668;19.326;2023-05-29T02:49:29;99062.91;;;12.92;76.61
80424;BME280;69765;47.668;19.326;2023-05-29T02:52:32;99064.59;;;12.92;75.39
80424;BME280;69765;47.668;19.326;2023-05-29T02:55:34;99061.22;;;12.93;74.07
80424;BME280;69765;47.668;19.326;2023-05-29T02:58:38;99065.72;;;12.81;76.12
80424;BME280;69765;47.668;19.326;2023-05-29T03:01:40;99074.31;;;12.81;74.94
80424;BME280;69765;47.668;19.326;2023-05-29T03:04:44;99057.25;;;12.83;75.51
80424;BME280;69765;47.668;19.326;2023-05-29T03:07:47;99058.56;;;12.91;74.90
80424;BME280;69765;47.668;19.326;2023-05-29T03:10:50;99063.25;;;12.98;73.52
80424;BME280;69765;47.668;19.326;2023-05-29T03:13:56;99064.81;;;13.11;72.58
80424;BME280;69765;47.668;19.326;2023-05-29T03:16:58;99062.81;;;13.22;72.53
80424;BME280;69765;47.668;19.326;2023-05-29T03:20:01;99060.94;;;13.34;71.63
80424;BME280;69765;47.668;19.326;2023-05-29T03:23:07;99067.84;;;13.35;71.60
80424;BME280;69765;47.668;19.326;2023-05-29T03:26:11;99062.06;;;13.39;71.18
80424;BME280;69765;47.668;19.326;2023-05-29T03:29:17;99062.72;;;13.51;71.88
80424;BME280;69765;47.668;19.326;2023-05-29T03:32:20;99060.38;;;13.56;71.65
80424;BME280;69765;47.668;19.326;2023-05-29T03:35:22;99069.88;;;13.57;71.76
80424;BME280;69765;47.668;19.326;2023-05-29T03:38:24;99071.06;;;13.64;71.72
80424;BME280;69765;47.668;19.326;2023-05-29T03:41:30;99078.38;;;13.72;71.50
80424;BME280;69765;47.668;19.326;2023-05-29T03:44:33;99086.00;;;13.87;70.77
80424;BME280;69765;47.668;19.326;2023-05-29T03:47:35;99088.03;;;13.93;71.46
80424;BME280;69765;47.668;19.326;2023-05-29T03:50:38;99084.97;;;13.84;73.25
80424;BME280;69765;47.668;19.326;2023-05-29T03:53:41;99083.53;;;13.72;73.72
80424;BME280;69765;47.668;19.326;2023-05-29T03:56:43;99098.03;;;13.70;75.04
80424;BME280;69765;47.668;19.326;2023-05-29T03:59:48;99086.94;;;13.55;75.22
80424;BME280;69765;47.668;19.326;2023-05-29T04:02:51;99093.09;;;13.59;76.93
80424;BME280;69765;47.668;19.326;2023-05-29T04:05:54;99099.94;;;13.74;76.48
80424;BME280;69765;47.668;19.326;2023-05-29T04:08:58;99089.31;;;13.85;76.74
80424;BME280;69765;47.668;19.326;2023-05-29T04:12:03;99091.00;;;13.84;76.68
80424;BME280;69765;47.668;19.326;2023-05-29T04:15:08;99101.78;;;13.93;76.70
80424;BME280;69765;47.668;19.326;2023-05-29T04:18:11;99095.25;;;14.00;75.45
80424;BME280;69765;47.668;19.326;2023-05-29T04:21:13;99098.00;;;14.21;75.97
80424;BME280;69765;47.668;19.326;2023-05-29T04:24:16;99107.91;;;14.29;76.94
80424;BME280;69765;47.668;19.326;2023-05-29T04:27:18;99110.78;;;14.52;76.75
80424;BME280;69765;47.668;19.326;2023-05-29T04:30:21;99109.59;;;14.63;77.98
80424;BME280;69765;47.668;19.326;2023-05-29T04:33:23;99103.34;;;14.76;77.11
80424;BME280;69765;47.668;19.326;2023-05-29T04:36:27;99098.41;;;14.98;72.95
80424;BME280;69765;47.668;19.326;2023-05-29T04:39:50;99104.38;;;15.15;73.10
80424;BME280;69765;47.668;19.326;2023-05-29T04:42:58;99087.75;;;15.28;72.66
80424;BME280;69765;47.668;19.326;2023-05-29T04:46:06;99097.22;;;15.47;73.17
80424;BME280;69765;47.668;19.326;2023-05-29T04:49:12;99098.22;;;15.68;74.61
80424;BME280;69765;47.668;19.326;2023-05-29T04:52:16;99099.31;;;15.93;72.66
80424;BME280;69765;47.668;19.326;2023-05-29T04:55:18;99096.84;;;16.15;62.85
80424;BME280;69765;47.668;19.326;2023-05-29T04:58:21;99097.31;;;16.47;60.44
80424;BME280;69765;47.668;19.326;2023-05-29T05:01:24;99096.88;;;16.78;63.63
80424;BME280;69765;47.668;19.326;2023-05-29T05:04:27;99103.38;;;17.11;63.53
80424;BME280;69765;47.668;19.326;2023-05-29T05:07:31;99097.16;;;17.29;63.03
80424;BME280;69765;47.668;19.326;2023-05-29T05:10:33;99100.81;;;17.58;59.00
80424;BME280;69765;47.668;19.326;2023-05-29T05:13:36;99101.56;;;18.02;61.67
80424;BME280;69765;47.668;19.326;2023-05-29T05:16:38;99099.28;;;18.35;58.00
80424;BME280;69765;47.668;19.326;2023-05-29T05:19:40;99098.34;;;18.84;56.53
80424;BME280;69765;47.668;19.326;2023-05-29T05:22:43;99097.31;;;19.34;55.19
80424;BME280;69765;47.668;19.326;2023-05-29T05:25:45;99101.63;;;19.94;55.14
80424;BME280;69765;47.668;19.326;2023-05-29T05:28:47;99098.78;;;20.48;51.70
80424;BME280;69765;47.668;19.326;2023-05-29T05:31:50;99100.34;;;21.14;48.21
80424;BME280;69765;47.668;19.326;2023-05-29T05:34:52;99097.25;;;21.69;46.56
80424;BME280;69765;47.668;19.326;2023-05-29T05:37:54;99093.25;;;22.32;44.60
80424;BME280;69765;47.668;19.326;2023-05-29T05:41:00;99089.28;;;23.06;43.21
80424;BME280;69765;47.668;19.326;2023-05-29T05:44:06;99085.38;;;23.40;43.44
80424;BME280;69765;47.668;19.326;2023-05-29T05:47:28;99096.09;;;23.60;42.89
80424;BME280;69765;47.668;19.326;2023-05-29T05:50:32;99087.50;;;24.46;40.03
80424;BME280;69765;47.668;19.326;2023-05-29T05:53:34;99084.34;;;24.85;39.11
80424;BME280;69765;47.668;19.326;2023-05-29T05:56:37;99092.78;;;24.47;39.07
80424;BME280;69765;47.668;19.326;2023-05-29T05:59:42;99107.19;;;25.03;39.51
80424;BME280;69765;47.668;19.326;2023-05-29T06:02:45;99100.50;;;25.49;38.08
80424;BME280;69765;47.668;19.326;2023-05-29T06:06:01;99114.38;;;25.29;38.51
80424;BME280;69765;47.668;19.326;2023-05-29T06:09:04;99106.19;;;24.89;38.94
80424;BME280;69765;47.668;19.326;2023-05-29T06:12:07;99117.56;;;24.03;40.77
80424;BME280;69765;47.668;19.326;2023-05-29T06:15:15;99118.75;;;24.32;42.14
80424;BME280;69765;47.668;19.326;2023-05-29T06:18:19;99127.81;;;23.84;40.92
80424;BME280;69765;47.668;19.326;2023-05-29T06:21:22;99131.91;;;23.62;42.02
80424;BME280;69765;47.668;19.326;2023-05-29T06:24:29;99125.31;;;23.90;41.18
80424;BME280;69765;47.668;19.326;2023-05-29T06:27:31;99132.41;;;24.01;42.14
80424;BME280;69765;47.668;19.326;2023-05-29T06:30:34;99137.94;;;24.28;41.83
80424;BME280;69765;47.668;19.326;2023-05-29T06:33:40;99131.44;;;23.94;42.69
80424;BME280;69765;47.668;19.326;2023-05-29T06:36:42;99132.72;;;24.28;42.76
80424;BME280;69765;47.668;19.326;2023-05-29T06:39:46;99135.47;;;24.39;41.37
80424;BME280;69765;47.668;19.326;2023-05-29T06:42:48;99142.69;;;24.64;43.57
80424;BME280;69765;47.668;19.326;2023-05-29T06:45:51;99137.72;;;24.95;40.42
80424;BME280;69765;47.668;19.326;2023-05-29T06:48:53;99130.94;;;25.26;39.05
80424;BME280;69765;47.668;19.326;2023-05-29T06:51:57;99137.22;;;25.48;37.23
80424;BME280;69765;47.668;19.326;2023-05-29T06:55:20;99129.38;;;25.54;39.48
80424;BME280;69765;47.668;19.326;2023-05-29T06:58:22;99130.34;;;24.53;40.56
80424;BME280;69765;47.668;19.326;2023-05-29T07:01:25;99123.31;;;24.47;41.27
80424;BME280;69765;47.668;19.326;2023-05-29T07:04:34;99124.09;;;25.48;39.47
80424;BME280;69765;47.668;19.326;2023-05-29T07:07:38;99133.22;;;26.40;36.84
80424;BME280;69765;47.668;19.326;2023-05-29T07:10:42;99134.19;;;26.73;36.18
80424;BME280;69765;47.668;19.326;2023-05-29T07:13:45;99139.44;;;27.22;35.79
80424;BME280;69765;47.668;19.326;2023-05-29T07:16:49;99135.03;;;27.39;34.62
80424;BME280;69765;47.668;19.326;2023-05-29T07:19:51;99133.16;;;27.66;34.88
80424;BME280;69765;47.668;19.326;2023-05-29T07:22:54;99140.97;;;27.99;32.88
80424;BME280;69765;47.668;19.326;2023-05-29T07:25:57;99129.28;;;28.51;31.45
80424;BME280;69765;47.668;19.326;2023-05-29T07:29:03;99133.56;;;28.67;30.95
80424;BME280;69765;47.668;19.326;2023-05-29T07:32:08;99136.06;;;28.84;31.13
80424;BME280;69765;47.668;19.326;2023-05-29T07:35:12;99139.72;;;28.71;30.03
80424;BME280;69765;47.668;19.326;2023-05-29T07:38:14;99149.97;;;29.08;30.29
80424;BME280;69765;47.668;19.326;2023-05-29T07:41:18;99149.44;;;28.63;31.14
80424;BME280;69765;47.668;19.326;2023-05-29T07:44:26;99153.66;;;28.82;31.00
80424;BME280;69765;47.668;19.326;2023-05-29T07:47:29;99162.91;;;29.34;30.88
80424;BME280;69765;47.668;19.326;2023-05-29T07:50:32;99160.88;;;29.63;29.86
80424;BME280;69765;47.668;19.326;2023-05-29T07:53:35;99161.44;;;29.93;31.02
80424;BME280;69765;47.668;19.326;2023-05-29T07:56:38;99161.09;;;30.19;30.13
80424;BME280;69765;47.668;19.326;2023-05-29T07:59:43;99163.03;;;30.04;30.02
80424;BME280;69765;47.668;19.326;2023-05-29T08:02:46;99157.03;;;29.93;30.00
80424;BME280;69765;47.668;19.326;2023-05-29T08:05:54;99164.06;;;30.59;30.43
80424;BME280;69765;47.668;19.326;2023-05-29T08:08:57;99165.34;;;30.32;29.99
80424;BME280;69765;47.668;19.326;2023-05-29T08:12:00;99159.47;;;30.72;30.44
80424;BME280;69765;47.668;19.326;2023-05-29T08:15:04;99157.94;;;31.13;28.92
80424;BME280;69765;47.668;19.326;2023-05-29T08:18:06;99161.66;;;31.02;28.38
80424;BME280;69765;47.668;19.326;2023-05-29T08:21:09;99162.22;;;30.64;29.28
80424;BME280;69765;47.668;19.326;2023-05-29T08:24:12;99165.97;;;30.49;30.29
80424;BME280;69765;47.668;19.326;2023-05-29T08:27:14;99163.13;;;31.19;30.20
80424;BME280;69765;47.668;19.326;2023-05-29T08:30:17;99161.25;;;31.27;28.33
80424;BME280;69765;47.668;19.326;2023-05-29T08:33:19;99160.88;;;31.48;28.69
80424;BME280;69765;47.668;19.326;2023-05-29T08:36:22;99158.66;;;31.72;26.67
80424;BME280;69765;47.668;19.326;2023-05-29T08:39:24;99158.19;;;30.39;30.42
80424;BME280;69765;47.668;19.326;2023-05-29T08:42:29;99149.06;;;31.65;28.27
80424;BME280;69765;47.668;19.326;2023-05-29T08:45:38;99150.34;;;31.44;28.86
80424;BME280;69765;47.668;19.326;2023-05-29T08:48:49;99137.13;;;31.44;27.81
80424;BME280;69765;47.668;19.326;2023-05-29T08:52:06;99146.84;;;32.30;26.68
80424;BME280;69765;47.668;19.326;2023-05-29T08:55:11;99134.66;;;32.21;27.65
80424;BME280;69765;47.668;19.326;2023-05-29T08:58:14;99137.97;;;31.89;29.28
80424;BME280;69765;47.668;19.326;2023-05-29T09:01:17;99146.84;;;31.88;28.14
80424;BME280;69765;47.668;19.326;2023-05-29T09:04:19;99141.53;;;32.69;28.23
80424;BME280;69765;47.668;19.326;2023-05-29T09:07:22;99143.56;;;32.17;27.58
80424;BME280;69765;47.668;19.326;2023-05-29T09:10:24;99148.66;;;31.38;28.45
80424;BME280;69765;47.668;19.326;2023-05-29T09:13:30;99156.97;;;30.61;30.90
80424;BME280;69765;47.668;19.326;2023-05-29T09:16:41;99154.31;;;29.98;32.26
80424;BME280;69765;47.668;19.326;2023-05-29T09:19:43;99152.72;;;29.85;32.45
80424;BME280;69765;47.668;19.326;2023-05-29T09:23:03;99142.22;;;31.03;29.23
80424;BME280;69765;47.668;19.326;2023-05-29T09:26:06;99145.88;;;30.95;29.72
80424;BME280;69765;47.668;19.326;2023-05-29T09:29:09;99140.97;;;30.73;30.64
80424;BME280;69765;47.668;19.326;2023-05-29T09:32:15;99145.25;;;30.82;29.84
80424;BME280;69765;47.668;19.326;2023-05-29T09:35:19;99138.06;;;32.65;27.58
80424;BME280;69765;47.668;19.326;2023-05-29T09:38:22;99137.44;;;34.22;25.43
80424;BME280;69765;47.668;19.326;2023-05-29T09:41:45;99140.38;;;35.98;22.99
80424;BME280;69765;47.668;19.326;2023-05-29T09:44:52;99135.28;;;33.41;26.05
80424;BME280;69765;47.668;19.326;2023-05-29T09:47:55;99144.28;;;35.38;23.28
80424;BME280;69765;47.668;19.326;2023-05-29T09:50:57;99134.25;;;35.71;22.80
80424;BME280;69765;47.668;19.326;2023-05-29T09:54:12;99128.59;;;36.93;21.13
80424;BME280;69765;47.668;19.326;2023-05-29T09:57:16;99140.97;;;34.22;25.31
80424;BME280;69765;47.668;19.326;2023-05-29T10:00:19;99128.34;;;33.36;25.99
80424;BME280;69765;47.668;19.326;2023-05-29T10:03:22;99133.59;;;33.04;25.83
80424;BME280;69765;47.668;19.326;2023-05-29T10:06:26;99132.75;;;33.02;26.30
80424;BME280;69765;47.668;19.326;2023-05-29T10:09:30;99137.75;;;34.41;24.35
80424;BME280;69765;47.668;19.326;2023-05-29T10:12:36;99137.94;;;34.63;23.73
80424;BME280;69765;47.668;19.326;2023-05-29T10:15:45;99140.72;;;34.60;23.95
80424;BME280;69765;47.668;19.326;2023-05-29T10:18:55;99136.72;;;34.46;24.98
80424;BME280;69765;47.668;19.326;2023-05-29T10:22:01;99132.22;;;35.03;24.73
80424;BME280;69765;47.668;19.326;2023-05-29T10:25:05;99143.09;;;35.22;26.03
80424;BME280;69765;47.668;19.326;2023-05-29T10:28:08;99138.00;;;34.03;26.86
80424;BME280;69765;47.668;19.326;2023-05-29T10:31:20;99138.25;;;32.19;29.23
80424;BME280;69765;47.668;19.326;2023-05-29T10:38:09;99152.06;;;30.37;31.96
80424;BME280;69765;47.668;19.326;2023-05-29T10:47:35;99139.94;;;28.30;36.25
80424;BME280;69765;47.668;19.326;2023-05-29T10:50:49;99133.09;;;27.93;36.40
80424;BME280;69765;47.668;19.326;2023-05-29T10:53:54;99129.66;;;27.82;36.17
80424;BME280;69765;47.668;19.326;2023-05-29T10:56:58;99131.44;;;27.56;37.19
80424;BME280;69765;47.668;19.326;2023-05-29T11:00:05;99139.44;;;27.19;38.79
80424;BME280;69765;47.668;19.326;2023-05-29T11:03:25;99135.94;;;26.79;42.58
80424;BME280;69765;47.668;19.326;2023-05-29T11:06:35;99133.28;;;26.92;40.72
80424;BME280;69765;47.668;19.326;2023-05-29T11:09:39;99133.28;;;26.88;39.92
80424;BME280;69765;47.668;19.326;2023-05-29T11:12:56;99135.91;;;26.75;40.79
80424;BME280;69765;47.668;19.326;2023-05-29T11:19:37;99120.16;;;26.59;41.09
80424;BME280;69765;47.668;19.326;2023-05-29T11:25:43;99133.13;;;26.02;44.60
80424;BME280;69765;47.668;19.326;2023-05-29T11:28:47;99131.31;;;25.87;42.38
80424;BME280;69765;47.668;19.326;2023-05-29T11:32:04;99122.41;;;25.58;42.84
80424;BME280;69765;47.668;19.326;2023-05-29T11:35:08;99127.41;;;25.16;43.77
80424;BME280;69765;47.668;19.326;2023-05-29T11:38:11;99124.28;;;25.80;43.83
80424;BME280;69765;47.668;19.326;2023-05-29T11:41:16;99120.13;;;26.60;42.19
80424;BME280;69765;47.668;19.326;2023-05-29T11:44:19;99106.75;;;28.01;37.94
80424;BME280;69765;47.668;19.326;2023-05-29T11:47:22;99110.22;;;28.03;37.56
80424;BME280;69765;47.668;19.326;2023-05-29T11:50:28;99102.16;;;28.27;36.23
80424;BME280;69765;47.668;19.326;2023-05-29T11:53:31;99095.69;;;28.77;36.14
80424;BME280;69765;47.668;19.326;2023-05-29T11:56:33;99101.94;;;29.61;33.66
80424;BME280;69765;47.668;19.326;2023-05-29T11:59:35;99094.22;;;29.40;32.97
80424;BME280;69765;47.668;19.326;2023-05-29T12:02:38;99098.09;;;29.08;34.99
80424;BME280;69765;47.668;19.326;2023-05-29T12:05:45;99092.03;;;28.97;35.48
80424;BME280;69765;47.668;19.326;2023-05-29T12:08:51;99083.22;;;28.98;34.56
80424;BME280;69765;47.668;19.326;2023-05-29T12:12:00;99082.97;;;29.96;32.82
80424;BME280;69765;47.668;19.326;2023-05-29T12:15:03;99079.97;;;30.25;32.33
80424;BME280;69765;47.668;19.326;2023-05-29T12:18:07;99074.94;;;30.64;31.46
80424;BME280;69765;47.668;19.326;2023-05-29T12:21:10;99074.28;;;30.51;31.08
80424;BME280;69765;47.668;19.326;2023-05-29T12:24:13;99058.97;;;30.73;28.62
80424;BME280;69765;47.668;19.326;2023-05-29T12:27:16;99073.34;;;29.92;31.31
80424;BME280;69765;47.668;19.326;2023-05-29T12:30:21;99065.69;;;30.37;29.62
80424;BME280;69765;47.668;19.326;2023-05-29T12:33:45;99053.44;;;30.86;29.03
80424;BME280;69765;47.668;19.326;2023-05-29T12:37:07;99058.75;;;30.84;28.80
80424;BME280;69765;47.668;19.326;2023-05-29T12:40:19;99050.78;;;30.86;29.49
80424;BME280;69765;47.668;19.326;2023-05-29T12:43:22;99053.97;;;30.52;29.04
80424;BME280;69765;47.668;19.326;2023-05-29T12:46:25;99039.94;;;30.50;27.82
80424;BME280;69765;47.668;19.326;2023-05-29T12:49:28;99054.19;;;30.40;28.76
80424;BME280;69765;47.668;19.326;2023-05-29T12:52:31;99053.63;;;30.21;28.56
80424;BME280;69765;47.668;19.326;2023-05-29T12:55:35;99052.94;;;29.34;29.26
80424;BME280;69765;47.668;19.326;2023-05-29T12:58:41;99054.69;;;28.40;31.87
80424;BME280;69765;47.668;19.326;2023-05-29T13:01:43;99051.34;;;29.19;29.62
80424;BME280;69765;47.668;19.326;2023-05-29T13:04:46;99061.56;;;29.48;31.12
80424;BME280;69765;47.668;19.326;2023-05-29T13:07:50;99053.34;;;28.94;30.79
80424;BME280;69765;47.668;19.326;2023-05-29T13:10:52;99049.63;;;29.15;31.05
80424;BME280;69765;47.668;19.326;2023-05-29T13:13:54;99052.03;;;29.37;30.12
80424;BME280;69765;47.668;19.326;2023-05-29T13:16:57;99058.56;;;29.81;29.60
80424;BME280;69765;47.668;19.326;2023-05-29T13:19:59;99041.56;;;29.97;29.88
80424;BME280;69765;47.668;19.326;2023-05-29T13:23:02;99038.78;;;30.09;32.77
80424;BME280;69765;47.668;19.326;2023-05-29T13:26:04;99049.44;;;30.03;32.72
80424;BME280;69765;47.668;19.326;2023-05-29T13:29:07;99044.34;;;28.11;36.21
80424;BME280;69765;47.668;19.326;2023-05-29T13:32:09;99026.63;;;28.31;36.05
80424;BME280;69765;47.668;19.326;2023-05-29T13:35:12;99035.78;;;28.95;34.19
80424;BME280;69765;47.668;19.326;2023-05-29T13:38:14;99027.66;;;29.15;33.16
80424;BME280;69765;47.668;19.326;2023-05-29T13:41:17;99032.00;;;29.19;31.94
80424;BME280;69765;47.668;19.326;2023-05-29T13:44:19;99026.50;;;28.49;34.44
80424;BME280;69765;47.668;19.326;2023-05-29T13:47:22;99026.06;;;29.00;33.32
80424;BME280;69765;47.668;19.326;2023-05-29T13:50:25;99031.34;;;29.00;32.68
80424;BME280;69765;47.668;19.326;2023-05-29T13:53:27;99029.47;;;29.10;32.32
80424;BME280;69765;47.668;19.326;2023-05-29T13:56:30;99022.72;;;28.80;32.15
80424;BME280;69765;47.668;19.326;2023-05-29T13:59:33;99026.50;;;28.52;31.46
80424;BME280;69765;47.668;19.326;2023-05-29T14:02:36;99022.56;;;27.83;33.51
80424;BME280;69765;47.668;19.326;2023-05-29T14:05:38;99025.44;;;27.26;34.50
80424;BME280;69765;47.668;19.326;2023-05-29T14:08:41;99028.97;;;26.99;35.07
80424;BME280;69765;47.668;19.326;2023-05-29T14:11:43;99021.06;;;27.04;35.08
80424;BME280;69765;47.668;19.326;2023-05-29T14:14:46;99018.47;;;26.85;34.15
80424;BME280;69765;47.668;19.326;2023-05-29T14:17:48;99027.28;;;26.57;34.62
80424;BME280;69765;47.668;19.326;2023-05-29T14:20:50;99029.88;;;26.17;35.30
80424;BME280;69765;47.668;19.326;2023-05-29T14:23:53;99027.22;;;25.98;35.91
80424;BME280;69765;47.668;19.326;2023-05-29T14:26:55;99045.50;;;25.69;37.09
80424;BME280;69765;47.668;19.326;2023-05-29T14:29:58;99027.03;;;25.43;37.53
80424;BME280;69765;47.668;19.326;2023-05-29T14:33:00;99030.44;;;25.24;38.37
80424;BME280;69765;47.668;19.326;2023-05-29T14:36:03;99024.94;;;24.89;40.11
80424;BME280;69765;47.668;19.326;2023-05-29T14:39:06;99020.56;;;24.85;40.50
80424;BME280;69765;47.668;19.326;2023-05-29T14:42:09;99010.00;;;24.72;40.82
80424;BME280;69765;47.668;19.326;2023-05-29T14:45:11;99016.97;;;24.66;40.75
80424;BME280;69765;47.668;19.326;2023-05-29T14:48:20;99015.19;;;24.63;42.71
80424;BME280;69765;47.668;19.326;2023-05-29T14:52:41;99017.75;;;24.57;41.74
80424;BME280;69765;47.668;19.326;2023-05-29T14:57:20;99030.59;;;24.31;43.31
80424;BME280;69765;47.668;19.326;2023-05-29T15:00:48;99026.75;;;23.94;44.24
80424;BME280;69765;47.668;19.326;2023-05-29T15:04:20;99029.13;;;23.71;45.64
80424;BME280;69765;47.668;19.326;2023-05-29T15:08:02;99025.44;;;23.54;46.52
80424;BME280;69765;47.668;19.326;2023-05-29T15:11:19;99023.63;;;23.48;46.42
80424;BME280;69765;47.668;19.326;2023-05-29T15:15:15;99023.53;;;23.42;46.34
80424;BME280;69765;47.668;19.326;2023-05-29T15:22:58;99016.22;;;23.15;47.38
80424;BME280;69765;47.668;19.326;2023-05-29T15:26:37;99018.59;;;22.98;47.89
80424;BME280;69765;47.668;19.326;2023-05-29T15:30:22;99022.09;;;23.00;47.86
80424;BME280;69765;47.668;19.326;2023-05-29T15:34:16;99027.31;;;22.97;48.99
80424;BME280;69765;47.668;19.326;2023-05-29T15:38:20;99028.94;;;22.90;48.68
80424;BME280;69765;47.668;19.326;2023-05-29T15:42:13;99022.53;;;22.71;49.13
80424;BME280;69765;47.668;19.326;2023-05-29T15:51:01;99022.44;;;22.65;48.05
80424;BME280;69765;47.668;19.326;2023-05-29T15:55:22;99024.41;;;22.82;46.42
80424;BME280;69765;47.668;19.326;2023-05-29T15:59:16;99026.22;;;22.84;45.77
80424;BME280;69765;47.668;19.326;2023-05-29T16:03:08;99018.34;;;22.83;45.79
80424;BME280;69765;47.668;19.326;2023-05-29T16:06:49;99020.97;;;22.83;45.10
80424;BME280;69765;47.668;19.326;2023-05-29T16:10:42;99015.63;;;22.74;44.75
80424;BME280;69765;47.668;19.326;2023-05-29T16:14:04;99013.88;;;22.76;44.73
80424;BME280;69765;47.668;19.326;2023-05-29T16:18:37;99015.69;;;22.80;45.40
80424;BME280;69765;47.668;19.326;2023-05-29T16:22:43;99010.53;;;22.83;45.00
80424;BME280;69765;47.668;19.326;2023-05-29T16:30:42;99008.16;;;22.98;44.35
80424;BME280;69765;47.668;19.326;2023-05-29T16:33:56;99017.00;;;23.08;44.86
80424;BME280;69765;47.668;19.326;2023-05-29T16:37:01;99017.91;;;23.11;44.39
80424;BME280;69765;47.668;19.326;2023-05-29T16:40:34;99005.59;;;23.01;44.20
80424;BME280;69765;47.668;19.326;2023-05-29T16:43:51;99018.75;;;23.09;44.58
80424;BME280;69765;47.668;19.326;2023-05-29T16:47:26;99013.44;;;23.01;44.52
80424;BME280;69765;47.668;19.326;2023-05-29T16:51:24;99027.31;;;23.00;44.43
80424;BME280;69765;47.668;19.326;2023-05-29T16:55:17;99020.34;;;22.96;44.29
80424;BME280;69765;47.668;19.326;2023-05-29T16:58:51;99022.03;;;22.94;44.97